createdAt,value
2018-07-17T00:02:02.561Z,20.60
2018-07-17T00:04:30.620Z,20.60
2018-07-17T00:06:58.678Z,20.60
2018-07-17T00:09:26.801Z,20.50
2018-07-17T00:11:54.853Z,20.50
2018-07-17T00:14:22.886Z,20.50
2018-07-17T00:16:50.936Z,20.40
2018-07-17T00:21:47.140Z,20.30
2018-07-17T00:24:15.193Z,20.20
2018-07-17T00:26:43.221Z,20.10
2018-07-17T00:29:11.282Z,20.00
2018-07-17T00:31:39.325Z,19.90
2018-07-17T00:34:07.381Z,19.80
2018-07-17T00:36:35.413Z,19.60
2018-07-17T00:39:03.637Z,19.50
2018-07-17T00:43:59.547Z,19.40
2018-07-17T00:46:27.584Z,19.30
2018-07-17T00:48:55.622Z,19.20
2018-07-17T00:51:23.677Z,19.10
2018-07-17T00:53:51.757Z,19.10
2018-07-17T00:56:19.783Z,19.10
2018-07-17T00:58:48.001Z,19.00
2018-07-17T01:01:21.510Z,19.00
2018-07-17T01:03:55.003Z,18.90
2018-07-17T01:06:28.792Z,18.90
2018-07-17T01:09:02.177Z,18.80
2018-07-17T01:11:35.813Z,18.70
2018-07-17T01:14:09.740Z,18.70
2018-07-17T01:16:37.773Z,18.60
2018-07-17T01:19:05.837Z,18.50
2018-07-17T01:21:33.873Z,18.50
2018-07-17T01:24:01.933Z,18.50
2018-07-17T01:26:29.961Z,18.60
2018-07-17T01:28:58.012Z,18.60
2018-07-17T01:31:26.077Z,18.50
2018-07-17T01:33:54.096Z,18.50
2018-07-17T01:36:22.144Z,18.40
2018-07-17T01:43:47.253Z,18.30
2018-07-17T01:46:15.282Z,18.30
2018-07-17T01:48:43.352Z,18.20
2018-07-17T01:51:11.376Z,18.20
2018-07-17T01:53:39.418Z,18.10
2018-07-17T01:56:07.945Z,18.10
2018-07-17T01:58:35.960Z,18.10
2018-07-17T02:01:04.028Z,18.20
2018-07-17T02:03:32.045Z,18.10
2018-07-17T02:06:00.081Z,18.10
2018-07-17T02:10:55.997Z,18.00
2018-07-17T02:13:24.018Z,18.00
2018-07-17T02:15:52.299Z,18.10
2018-07-17T02:18:20.339Z,18.10
2018-07-17T02:20:48.377Z,18.10
2018-07-17T02:23:16.442Z,18.00
2018-07-17T02:25:44.505Z,18.00
2018-07-17T02:28:12.765Z,18.00
2018-07-17T02:30:40.830Z,18.00
2018-07-17T02:35:37.292Z,18.00
2018-07-17T02:40:33.345Z,17.90
2018-07-17T02:45:29.305Z,17.90
2018-07-17T02:47:57.365Z,17.90
2018-07-17T02:52:53.353Z,17.80
2018-07-17T02:55:21.384Z,17.80
2018-07-17T02:57:49.437Z,17.80
2018-07-17T03:00:17.477Z,17.70
2018-07-17T03:02:45.548Z,17.70
2018-07-17T03:05:13.569Z,17.70
2018-07-17T03:07:41.605Z,17.70
2018-07-17T03:10:09.753Z,17.80
2018-07-17T03:12:37.825Z,17.80
2018-07-17T03:15:05.854Z,17.90
2018-07-17T03:17:33.893Z,17.90
2018-07-17T03:20:01.912Z,17.90
2018-07-17T03:22:30.106Z,17.90
2018-07-17T03:24:58.150Z,18.00
2018-07-17T03:27:26.180Z,18.00
2018-07-17T03:29:54.201Z,18.00
2018-07-17T03:32:22.258Z,18.00
2018-07-17T03:34:50.290Z,18.00
2018-07-17T03:37:18.325Z,18.00
2018-07-17T03:39:46.377Z,18.00
2018-07-17T03:42:14.396Z,18.00
2018-07-17T03:44:42.449Z,18.10
2018-07-17T03:47:10.513Z,18.10
2018-07-17T03:49:38.545Z,18.20
2018-07-17T03:52:06.605Z,18.30
2018-07-17T03:54:34.630Z,18.30
2018-07-17T03:57:02.673Z,18.40
2018-07-17T03:59:30.695Z,18.40
2018-07-17T04:01:58.736Z,18.30
2018-07-17T04:04:26.874Z,18.40
2018-07-17T04:06:54.800Z,18.50
2018-07-17T04:14:18.521Z,18.80
2018-07-17T04:16:52.468Z,18.90
2018-07-17T04:19:20.544Z,18.90
2018-07-17T04:21:48.941Z,19.00
2018-07-17T04:24:17.064Z,18.90
2018-07-17T04:26:45.293Z,19.00
2018-07-17T04:29:13.338Z,18.90
2018-07-17T04:31:41.447Z,19.00
2018-07-17T04:34:09.443Z,19.00
2018-07-17T04:36:37.592Z,19.00
2018-07-17T04:39:07.940Z,19.00
2018-07-17T04:41:36.022Z,19.00
2018-07-17T04:44:04.073Z,19.10
2018-07-17T04:46:32.269Z,19.10
2018-07-17T04:49:00.297Z,19.10
2018-07-17T04:51:28.358Z,19.10
2018-07-17T04:53:56.553Z,19.10
2018-07-17T04:56:24.545Z,19.10
2018-07-17T04:58:52.568Z,19.20
2018-07-17T05:01:20.620Z,19.20
2018-07-17T05:03:49.728Z,19.20
2018-07-17T05:06:17.764Z,19.10
2018-07-17T05:08:45.809Z,19.10
2018-07-17T05:11:13.843Z,19.10
2018-07-17T05:13:41.874Z,19.10
2018-07-17T05:16:09.925Z,19.10
2018-07-17T05:18:37.953Z,19.10
2018-07-17T05:21:06.033Z,19.10
2018-07-17T05:23:34.105Z,19.10
2018-07-17T05:26:02.150Z,19.20
2018-07-17T05:28:30.221Z,19.30
2018-07-17T05:30:58.322Z,19.30
2018-07-17T05:33:26.385Z,19.40
2018-07-17T05:35:54.440Z,19.60
2018-07-17T05:38:22.501Z,19.70
2018-07-17T05:43:18.417Z,19.90
2018-07-17T05:45:46.457Z,20.00
2018-07-17T05:48:14.529Z,20.10
2018-07-17T05:50:42.594Z,20.20
2018-07-17T05:53:10.652Z,20.20
2018-07-17T05:55:38.688Z,20.30
2018-07-17T05:58:06.912Z,20.40
2018-07-17T06:00:34.948Z,20.50
2018-07-17T06:03:03.036Z,20.60
2018-07-17T06:05:31.081Z,20.60
2018-07-17T06:07:59.164Z,20.70
2018-07-17T06:10:27.275Z,20.80
2018-07-17T06:12:55.268Z,21.00
2018-07-17T06:15:23.342Z,21.10
2018-07-17T06:17:51.439Z,21.20
2018-07-17T06:20:19.533Z,21.30
2018-07-17T06:22:47.598Z,21.30
2018-07-17T06:25:15.650Z,21.40
2018-07-17T06:27:43.885Z,21.50
2018-07-17T06:30:11.934Z,21.60
2018-07-17T06:32:40.113Z,21.70
2018-07-17T06:35:08.188Z,21.80
2018-07-17T06:37:37.245Z,21.90
2018-07-17T06:40:05.299Z,22.00
2018-07-17T06:42:34.112Z,22.00
2018-07-17T06:45:02.141Z,22.20
2018-07-17T06:47:30.214Z,22.30
2018-07-17T06:49:58.284Z,22.40
2018-07-17T06:52:26.292Z,22.60
2018-07-17T06:54:54.413Z,22.80
2018-07-17T06:57:22.505Z,22.90
2018-07-17T06:59:50.501Z,23.10
2018-07-17T07:02:18.549Z,23.30
2018-07-17T07:04:46.649Z,23.40
2018-07-17T07:07:14.684Z,23.60
2018-07-17T07:09:42.753Z,23.70
2018-07-17T07:12:11.333Z,23.70
2018-07-17T07:14:40.208Z,23.90
2018-07-17T07:17:08.249Z,24.10
2018-07-17T07:19:36.576Z,24.30
2018-07-17T07:22:04.812Z,24.40
2018-07-17T07:24:33.037Z,24.60
2018-07-17T07:27:01.112Z,24.70
2018-07-17T07:29:29.152Z,25.00
2018-07-17T07:31:57.196Z,25.20
2018-07-17T07:34:25.205Z,25.40
2018-07-17T07:36:53.224Z,25.50
2018-07-17T07:39:21.260Z,25.80
2018-07-17T07:41:49.309Z,26.00
2018-07-17T07:44:17.345Z,26.40
2018-07-17T07:46:45.389Z,26.80
2018-07-17T07:49:13.421Z,27.20
2018-07-17T07:51:41.460Z,27.70
2018-07-17T07:54:09.472Z,28.60
2018-07-17T07:56:37.530Z,29.80
2018-07-17T07:59:05.553Z,30.70
2018-07-17T08:01:33.599Z,31.40
2018-07-17T08:04:01.736Z,31.80
2018-07-17T08:06:29.737Z,31.70
2018-07-17T08:08:57.761Z,31.70
2018-07-17T08:11:25.801Z,31.70
2018-07-17T08:13:53.841Z,31.90
2018-07-17T08:16:21.888Z,31.90
2018-07-17T08:18:49.937Z,32.00
2018-07-17T08:21:17.992Z,32.10
2018-07-17T08:23:46.037Z,32.30
2018-07-17T08:26:14.062Z,32.60
2018-07-17T08:28:42.116Z,32.60
2018-07-17T08:31:10.233Z,32.80
2018-07-17T08:33:38.244Z,32.80
2018-07-17T08:36:06.322Z,32.90
2018-07-17T08:38:34.361Z,33.10
2018-07-17T08:41:02.380Z,33.20
2018-07-17T08:43:30.533Z,33.10
2018-07-17T08:45:58.481Z,33.20
2018-07-17T08:48:26.557Z,33.30
2018-07-17T08:50:54.574Z,33.50
2018-07-17T08:53:22.632Z,33.60
2018-07-17T08:55:50.678Z,33.80
2018-07-17T08:58:18.722Z,33.80
2018-07-17T09:00:46.748Z,33.80
2018-07-17T09:03:14.796Z,33.90
2018-07-17T09:05:42.817Z,33.90
2018-07-17T09:08:11.297Z,33.80
2018-07-17T09:10:39.324Z,33.70
2018-07-17T09:13:07.411Z,33.50
2018-07-17T09:15:35.807Z,33.20
2018-07-17T09:18:03.858Z,33.20
2018-07-17T09:20:32.009Z,33.30
2018-07-17T09:23:00.082Z,33.30
2018-07-17T09:25:28.262Z,33.10
2018-07-17T09:27:56.438Z,33.00
2018-07-17T09:30:24.484Z,32.70
2018-07-17T09:32:52.544Z,32.50
2018-07-17T09:35:20.582Z,32.40
2018-07-17T09:37:48.629Z,32.50
2018-07-17T09:40:16.665Z,32.70
2018-07-17T09:42:44.716Z,32.80
2018-07-17T09:45:12.844Z,32.90
2018-07-17T09:47:40.976Z,33.00
2018-07-17T09:50:08.998Z,32.80
2018-07-17T09:52:37.033Z,32.70
2018-07-17T09:55:05.053Z,32.60
2018-07-17T09:57:33.104Z,32.60
2018-07-17T10:00:01.121Z,32.60
2018-07-17T10:02:30.641Z,32.60
2018-07-17T10:04:59.515Z,32.60
2018-07-17T10:07:27.903Z,32.40
2018-07-17T10:09:55.931Z,32.00
2018-07-17T10:12:24.885Z,32.20
2018-07-17T10:14:52.932Z,32.40
2018-07-17T10:17:20.978Z,32.60
2018-07-17T10:19:49.070Z,32.70
2018-07-17T10:22:17.030Z,32.80
2018-07-17T10:24:45.078Z,32.70
2018-07-17T10:29:41.031Z,32.80
2018-07-17T10:32:09.167Z,32.70
2018-07-17T10:37:05.360Z,32.40
2018-07-17T10:39:33.401Z,32.10
2018-07-17T10:42:01.430Z,31.90
2018-07-17T10:44:29.458Z,31.70
2018-07-17T10:46:57.512Z,31.60
2018-07-17T10:49:25.541Z,31.40
2018-07-17T10:54:21.437Z,31.60
2018-07-17T10:56:49.488Z,31.90
2018-07-17T11:02:08.485Z,32.20
2018-07-17T11:04:36.541Z,32.20
2018-07-17T11:07:04.604Z,32.00
2018-07-17T11:09:32.641Z,32.10
2018-07-17T11:12:00.764Z,32.10
2018-07-17T11:14:28.739Z,32.20
2018-07-17T11:16:56.789Z,32.20
2018-07-17T11:19:24.868Z,32.20
2018-07-17T11:21:52.953Z,32.00
2018-07-17T11:24:21.023Z,31.80
2018-07-17T11:26:49.105Z,31.70
2018-07-17T11:29:17.160Z,31.50
2018-07-17T11:31:45.196Z,31.70
2018-07-17T11:34:13.260Z,31.80
2018-07-17T11:36:42.089Z,31.90
2018-07-17T11:39:10.131Z,32.00
2018-07-17T11:41:38.192Z,32.20
2018-07-17T11:44:06.204Z,32.40
2018-07-17T11:46:34.253Z,32.50
2018-07-17T11:49:02.293Z,32.50
2018-07-17T11:51:30.356Z,32.70
2018-07-17T11:53:58.406Z,32.80
2018-07-17T11:56:26.440Z,32.80
2018-07-17T11:58:54.621Z,32.90
2018-07-17T12:01:22.548Z,32.90
2018-07-17T12:03:50.593Z,32.90
2018-07-17T12:06:18.698Z,32.90
2018-07-17T12:08:46.809Z,32.80
2018-07-17T12:13:42.777Z,32.80
2018-07-17T12:16:10.810Z,32.50
2018-07-17T12:33:59.049Z,32.30
2018-07-17T12:36:27.081Z,32.00
2018-07-17T12:38:55.126Z,31.90
2018-07-17T12:41:23.436Z,31.50
2018-07-17T12:43:51.460Z,31.20
2018-07-17T12:46:19.536Z,31.10
2018-07-17T12:48:47.622Z,31.10
2018-07-17T12:51:15.694Z,30.90
2018-07-17T12:53:43.721Z,30.70
2018-07-17T12:56:11.794Z,30.70
2018-07-17T12:58:39.832Z,30.70
2018-07-17T13:01:07.909Z,30.50
2018-07-17T13:06:03.799Z,30.50
2018-07-17T13:08:31.856Z,30.40
2018-07-17T13:10:59.898Z,30.40
2018-07-17T13:13:27.940Z,30.30
2018-07-17T13:15:56.234Z,30.20
2018-07-17T13:18:24.341Z,30.20
2018-07-17T13:20:52.365Z,30.10
2018-07-17T13:23:20.552Z,29.80
2018-07-17T13:25:48.608Z,29.70
2018-07-17T13:28:16.724Z,29.50
2018-07-17T13:30:44.755Z,29.50
2018-07-17T13:33:12.808Z,29.40
2018-07-17T13:35:40.827Z,29.30
2018-07-17T13:38:08.872Z,29.30
2018-07-17T13:40:36.932Z,29.20
2018-07-17T13:45:32.857Z,29.20
2018-07-17T13:48:00.914Z,29.30
2018-07-17T13:50:29.017Z,29.20
2018-07-17T13:52:57.022Z,29.20
2018-07-17T13:55:25.121Z,29.20
2018-07-17T13:57:53.948Z,29.20
2018-07-17T14:00:22.027Z,29.20
2018-07-17T14:02:50.026Z,29.20
2018-07-17T14:05:18.068Z,29.30
2018-07-17T14:07:46.114Z,29.30
2018-07-17T14:10:14.203Z,29.40
2018-07-17T14:12:42.381Z,29.40
2018-07-17T14:15:10.133Z,29.40
2018-07-17T14:17:38.184Z,29.40
2018-07-17T14:20:06.249Z,29.40
2018-07-17T14:22:34.298Z,29.30
2018-07-17T14:25:02.336Z,29.20
2018-07-17T14:27:30.391Z,29.10
2018-07-17T14:29:58.437Z,28.90
2018-07-17T14:32:26.468Z,28.80
2018-07-17T14:34:54.524Z,28.70
2018-07-17T14:37:22.574Z,28.60
2018-07-17T14:39:50.688Z,28.60
2018-07-17T14:42:18.702Z,28.60
2018-07-17T14:44:46.761Z,28.70
2018-07-17T14:47:14.813Z,28.80
2018-07-17T14:49:42.864Z,28.80
2018-07-17T14:54:38.746Z,28.70
2018-07-17T14:57:06.810Z,28.70
2018-07-17T14:59:34.841Z,28.60
2018-07-17T15:02:02.877Z,28.60
2018-07-17T15:04:30.945Z,28.50
2018-07-17T15:06:58.981Z,28.50
2018-07-17T15:09:27.061Z,28.30
2018-07-17T15:11:55.074Z,28.30
2018-07-17T15:14:23.132Z,28.30
2018-07-17T15:16:51.218Z,28.20
2018-07-17T15:19:19.353Z,28.00
2018-07-17T15:21:47.386Z,27.90
2018-07-17T15:24:15.480Z,27.80
2018-07-17T15:26:46.523Z,27.70
2018-07-17T15:29:14.792Z,27.60
2018-07-17T15:31:42.822Z,27.70
2018-07-17T15:34:10.850Z,27.80
2018-07-17T15:36:38.900Z,27.90
2018-07-17T15:39:08.650Z,28.00
2018-07-17T15:41:36.778Z,28.00
2018-07-17T15:44:04.824Z,28.10
2018-07-17T15:46:32.876Z,28.20
2018-07-17T15:49:00.922Z,28.30
2018-07-17T15:51:29.093Z,28.50
2018-07-17T15:53:57.142Z,28.60
2018-07-17T15:56:25.190Z,28.80
2018-07-17T15:58:53.323Z,28.80
2018-07-17T16:01:21.437Z,28.80
2018-07-17T16:03:49.493Z,28.90
2018-07-17T16:06:17.669Z,28.90
2018-07-17T16:08:45.733Z,29.00
2018-07-17T16:11:13.756Z,29.00
2018-07-17T16:13:41.879Z,29.00
2018-07-17T16:16:09.854Z,29.00
2018-07-17T16:18:37.932Z,29.00
2018-07-17T16:21:06.403Z,29.00
2018-07-17T16:23:34.453Z,29.00
2018-07-17T16:26:02.533Z,28.90
2018-07-17T16:28:30.594Z,28.80
2018-07-17T16:30:58.647Z,28.60
2018-07-17T16:33:26.694Z,28.50
2018-07-17T16:35:54.808Z,28.30
2018-07-17T16:38:22.869Z,28.10
2018-07-17T16:40:50.898Z,28.00
2018-07-17T16:43:18.956Z,27.90
2018-07-17T16:45:47.009Z,27.80
2018-07-17T16:48:15.065Z,27.70
2018-07-17T16:50:43.109Z,27.50
2018-07-17T16:53:11.177Z,27.20
2018-07-17T16:55:39.218Z,27.10
2018-07-17T16:58:07.301Z,26.90
2018-07-17T17:00:35.366Z,26.80
2018-07-17T17:03:03.404Z,26.60
2018-07-17T17:05:31.736Z,26.50
2018-07-17T17:07:59.804Z,26.30
2018-07-17T17:10:27.857Z,26.20
2018-07-17T17:12:55.920Z,26.00
2018-07-17T17:15:23.996Z,25.90
2018-07-17T17:17:52.057Z,25.80
2018-07-17T17:20:20.252Z,25.70
2018-07-17T17:22:48.321Z,25.70
2018-07-17T17:25:16.366Z,25.60
2018-07-17T17:27:44.430Z,25.50
2018-07-17T17:30:12.472Z,25.50
2018-07-17T17:32:40.536Z,25.40
2018-07-17T17:35:08.600Z,25.40
2018-07-17T17:37:36.645Z,25.30
2018-07-17T17:40:04.726Z,25.30
2018-07-17T17:42:32.772Z,25.20
2018-07-17T17:45:00.832Z,25.20
2018-07-17T17:47:28.892Z,25.20
2018-07-17T17:49:56.978Z,25.20
2018-07-17T17:52:25.016Z,25.20
2018-07-17T17:54:53.073Z,25.20
2018-07-17T17:57:21.132Z,25.10
2018-07-17T17:59:49.193Z,25.10
2018-07-17T18:02:17.821Z,25.20
2018-07-17T18:07:13.818Z,25.20
2018-07-17T18:09:41.877Z,25.10
2018-07-17T18:12:10.149Z,25.00
2018-07-17T18:14:38.135Z,25.00
2018-07-17T18:17:06.205Z,25.10
2018-07-17T18:19:34.296Z,25.10
2018-07-17T18:22:02.317Z,25.10
2018-07-17T18:24:30.353Z,25.10
2018-07-17T18:26:58.459Z,25.10
2018-07-17T18:29:26.460Z,25.10
2018-07-17T18:31:54.521Z,25.00
2018-07-17T18:34:22.655Z,25.00
2018-07-17T18:36:50.656Z,24.90
2018-07-17T18:39:18.721Z,24.90
2018-07-17T18:41:46.785Z,24.90
2018-07-17T18:44:14.841Z,24.90
2018-07-17T18:46:42.874Z,24.80
2018-07-17T18:49:10.938Z,24.70
2018-07-17T18:51:38.976Z,24.70
2018-07-17T18:54:07.046Z,24.70
2018-07-17T18:56:35.085Z,24.70
2018-07-17T19:01:30.976Z,24.50
2018-07-17T19:03:59.032Z,24.50
2018-07-17T19:06:27.052Z,24.40
2018-07-17T19:08:55.123Z,24.30
2018-07-17T19:11:23.233Z,24.30
2018-07-17T19:13:51.212Z,24.30
2018-07-17T19:16:19.262Z,24.30
2018-07-17T19:18:47.309Z,24.30
2018-07-17T19:21:15.400Z,24.30
2018-07-17T19:23:43.457Z,24.30
2018-07-17T19:26:11.487Z,24.30
2018-07-17T19:28:39.589Z,24.40
2018-07-17T19:31:07.664Z,24.40
2018-07-17T19:33:35.738Z,24.30
2018-07-17T19:36:03.810Z,24.20
2018-07-17T19:38:31.854Z,24.20
2018-07-17T19:40:59.916Z,24.10
2018-07-17T19:43:28.002Z,24.10
2018-07-17T19:45:56.029Z,24.10
2018-07-17T19:48:24.109Z,24.10
2018-07-17T19:50:52.225Z,24.10
2018-07-17T19:53:20.285Z,24.00
2018-07-17T19:55:48.349Z,24.00
2018-07-17T19:58:16.401Z,24.00
2018-07-17T20:00:44.846Z,23.90
2018-07-17T20:03:12.884Z,23.80
2018-07-17T20:05:40.949Z,23.80
2018-07-17T20:08:09.164Z,23.70
2018-07-17T20:10:37.179Z,23.70
2018-07-17T20:13:05.273Z,23.60
2018-07-17T20:15:33.348Z,23.60
2018-07-17T20:18:01.430Z,23.60
2018-07-17T20:20:29.468Z,23.60
2018-07-17T20:22:57.517Z,23.70
2018-07-17T20:25:25.572Z,23.70
2018-07-17T20:27:53.627Z,23.60
2018-07-17T20:30:21.699Z,23.60
2018-07-17T20:32:49.747Z,23.50
2018-07-17T20:35:17.833Z,23.50
2018-07-17T20:37:45.882Z,23.50
2018-07-17T20:40:13.916Z,23.50
2018-07-17T20:42:42.089Z,23.50
2018-07-17T20:45:10.140Z,23.40
2018-07-17T20:47:38.197Z,23.40
2018-07-17T20:50:06.272Z,23.40
2018-07-17T20:52:34.389Z,23.40
2018-07-17T20:55:02.401Z,23.40
2018-07-17T20:57:30.468Z,23.30
2018-07-17T20:59:58.537Z,23.30
2018-07-17T21:02:27.168Z,23.30
2018-07-17T21:07:23.136Z,23.20
2018-07-17T21:09:51.198Z,23.20
2018-07-17T21:12:19.232Z,23.20
2018-07-17T21:14:47.333Z,23.10
2018-07-17T21:17:15.437Z,23.10
2018-07-17T21:19:43.552Z,23.10
2018-07-17T21:22:11.756Z,23.00
2018-07-17T21:24:39.797Z,23.00
2018-07-17T21:27:07.856Z,23.00
2018-07-17T21:29:35.981Z,22.90
2018-07-17T21:32:04.132Z,22.90
2018-07-17T21:34:32.300Z,22.90
2018-07-17T21:37:00.409Z,22.90
2018-07-17T21:39:28.558Z,22.80
2018-07-17T21:41:57.035Z,22.80
2018-07-17T21:44:25.116Z,22.80
2018-07-17T21:46:53.304Z,22.70
2018-07-17T21:49:21.473Z,22.70
2018-07-17T21:51:49.568Z,22.60
2018-07-17T21:54:17.685Z,22.60
2018-07-17T21:56:49.668Z,22.50
2018-07-17T21:59:17.790Z,22.50
2018-07-17T22:04:37.354Z,22.40
2018-07-17T22:07:05.465Z,22.40
2018-07-17T22:09:33.513Z,22.40
2018-07-17T22:12:01.688Z,22.40
2018-07-17T22:14:29.734Z,22.30
2018-07-17T22:16:57.838Z,22.30
2018-07-17T22:19:25.939Z,22.30
2018-07-17T22:21:54.094Z,22.20
2018-07-17T22:24:22.250Z,22.20
2018-07-17T22:26:50.372Z,22.10
2018-07-17T22:29:18.429Z,22.00
2018-07-17T22:31:46.602Z,21.90
2018-07-17T22:34:14.669Z,21.90
2018-07-17T22:36:42.717Z,21.80
2018-07-17T22:39:10.961Z,21.70
2018-07-17T22:41:39.081Z,21.60
2018-07-17T22:44:07.554Z,21.60
2018-07-17T22:46:35.629Z,21.40
2018-07-17T22:49:03.721Z,21.30
2018-07-17T22:51:32.097Z,21.30
2018-07-17T22:54:00.141Z,21.20
2018-07-17T22:56:28.234Z,21.10
2018-07-17T22:58:56.281Z,21.00
2018-07-17T23:01:24.337Z,20.90
2018-07-17T23:03:52.378Z,20.80
2018-07-17T23:06:20.458Z,20.70
2018-07-17T23:11:17.324Z,20.80
2018-07-17T23:13:45.364Z,20.70
2018-07-17T23:16:13.444Z,20.70
2018-07-17T23:18:41.494Z,20.70
2018-07-17T23:21:09.541Z,20.70
2018-07-17T23:23:37.640Z,20.60
2018-07-17T23:26:05.667Z,20.50
2018-07-17T23:28:33.716Z,20.40
2018-07-17T23:31:01.761Z,20.30
2018-07-17T23:33:29.801Z,20.10
2018-07-17T23:38:25.744Z,20.10
2018-07-17T23:40:53.780Z,20.10
2018-07-17T23:43:21.846Z,19.90
2018-07-17T23:45:49.912Z,19.90
2018-07-17T23:48:17.991Z,19.90
2018-07-17T23:50:46.025Z,19.90
2018-07-17T23:55:41.912Z,19.70
2018-07-17T23:58:09.998Z,19.70
